Adventure of The Seas — C6SA3 — position and weather

sailwx.info

Track history (hours):
 
Tides and Currents Weather Stations Pressure Air Temp Water Temp Dewpoint Dewpoint Depression Visibility Wind Speed Wind Dir Waves Ship Positions

Adventure of The Seas

Operator: Royal Caribbean Cruises Ltd

Last reported at 2014-Aug-21 19:33 UTC. Time now 2014-Aug-21 23:57 UTC.
Position N 38°36' E 000°23'.

Type: Passenger vessel. MMSI: 311263000.

Date/timePositionNaut miles runAvg speedWind from/ knotsBaromVisibWave heightAir tempDewpointWater temp
2014-Aug-21 19:33N 38°36' E 000°23'1818.5
2014-Aug-21 18:33N 38°20' E 000°11'1918.2
2014-Aug-21 17:32N 38°05' W 000°03'1918.2
2014-Aug-21 16:31N 37°50' W 000°16'1818.4
2014-Aug-21 15:33N 37°35' W 000°28'1816.9
2014-Aug-21 14:31N 37°32' W 000°50'405 9.9
2014-Aug-19 21:33N 36°31' W 009°11'1919.2
2014-Aug-19 20:33N 36°44' W 009°29'2119.8
2014-Aug-19 19:28N 37°04' W 009°39'88618.1
2014-Aug-17 18:33N 50°29' W 001°08'1514.7
2014-Aug-17 17:33N 50°43' W 001°00'1212.3
2014-Aug-17 16:34N 50°49' W 001°17'7 0.6
2014-Aug-17 04:19N 50°54' W 001°25'5 6.2
2014-Aug-17 03:34N 50°51' W 001°20'1010.0
2014-Aug-17 02:34N 50°45' W 001°07'1110.9
2014-Aug-17 01:34N 50°35' W 000°59'  
2014-Aug-14 17:33N 38°38' W 009°22'10 9.7
2014-Aug-14 16:33N 38°42' W 009°10'0 0.0
2014-Aug-14 15:33N 38°42' W 009°10'0 0.0
2014-Aug-14 14:33N 38°42' W 009°10'0 0.0
2014-Aug-14 13:30N 38°42' W 009°10'0 0.0
2014-Aug-14 12:33N 38°42' W 009°10'0 0.0
2014-Aug-14 11:33N 38°42' W 009°10'0 0.0
2014-Aug-14 10:33N 38°42' W 009°10'0 0.0
2014-Aug-14 09:33N 38°42' W 009°10'6 6.2
2014-Aug-14 08:34N 38°40' W 009°18'12416.8
2014-Aug-14 01:11N 36°39' W 008°51'1320.0
2014-Aug-14 00:33N 36°34' W 008°36'6420.9
2014-Aug-13 21:30N 36°15' W 007°21'1919.9
2014-Aug-13 20:33N 36°09' W 006°59'29112.6
2014-Aug-12 21:33N 37°12' W 001°05'2019.8
2014-Aug-12 20:33N 37°25' W 000°46'2120.8
2014-Aug-12 19:34N 37°40' W 000°29'1817.8
2014-Aug-12 18:33N 37°55' W 000°17'11518.8
2014-Aug-12 12:26N 39°24' E 001°18'4619.2
2014-Aug-12 10:03N 39°53' E 002°04'1919.5
2014-Aug-12 09:05N 40°05' E 002°23'1018.6
2014-Aug-12 08:32N 40°12' E 002°33'1919.3
2014-Aug-12 07:33N 40°24' E 002°52'2019.8
2014-Aug-12 06:33N 40°37' E 003°11'4220.0
2014-Aug-12 04:28N 41°04' E 003°54'2120.8
2014-Aug-12 03:28N 41°17' E 004°15'1819.0
2014-Aug-12 02:32N 41°28' E 004°33'2020.0
2014-Aug-12 01:32N 41°41' E 004°54'2120.4
2014-Aug-12 00:29N 41°55' E 005°16'1920.3
2014-Aug-11 23:33N 42°07' E 005°35'2020.0
2014-Aug-11 22:33N 42°20' E 005°56'2019.8
2014-Aug-11 21:33N 42°33' E 006°16'1919.4
2014-Aug-11 20:33N 42°45' E 006°37'2019.8
2014-Aug-11 19:33N 42°58' E 006°57'  
Track history (hours):
 
Tides and Currents Weather Stations Pressure Air Temp Water Temp Dewpoint Dewpoint Depression Visibility Wind Speed Wind Dir Waves Ship Positions

Adventure of The Seas

Operator: Royal Caribbean Cruises Ltd

Last reported at 2014-Aug-21 19:33 UTC. Time now 2014-Aug-21 23:57 UTC.
Position N 38°36' E 000°23'.

Type: Passenger vessel. MMSI: 311263000.

Date/timePositionNaut miles runAvg speedWind from/ knotsBaromVisibWave heightAir tempDewpointWater temp
2014-Aug-21 19:33N 38°36' E 000°23'1818.5
2014-Aug-21 18:33N 38°20' E 000°11'1918.2
2014-Aug-21 17:32N 38°05' W 000°03'1918.2
2014-Aug-21 16:31N 37°50' W 000°16'1818.4
2014-Aug-21 15:33N 37°35' W 000°28'1816.9
2014-Aug-21 14:31N 37°32' W 000°50'405 9.9
2014-Aug-19 21:33N 36°31' W 009°11'1919.2
2014-Aug-19 20:33N 36°44' W 009°29'2119.8
2014-Aug-19 19:28N 37°04' W 009°39'88618.1
2014-Aug-17 18:33N 50°29' W 001°08'1514.7
2014-Aug-17 17:33N 50°43' W 001°00'1212.3
2014-Aug-17 16:34N 50°49' W 001°17'7 0.6
2014-Aug-17 04:19N 50°54' W 001°25'5 6.2
2014-Aug-17 03:34N 50°51' W 001°20'1010.0
2014-Aug-17 02:34N 50°45' W 001°07'1110.9
2014-Aug-17 01:34N 50°35' W 000°59'  
2014-Aug-14 17:33N 38°38' W 009°22'10 9.7
2014-Aug-14 16:33N 38°42' W 009°10'0 0.0
2014-Aug-14 15:33N 38°42' W 009°10'0 0.0
2014-Aug-14 14:33N 38°42' W 009°10'0 0.0
2014-Aug-14 13:30N 38°42' W 009°10'0 0.0
2014-Aug-14 12:33N 38°42' W 009°10'0 0.0
2014-Aug-14 11:33N 38°42' W 009°10'0 0.0
2014-Aug-14 10:33N 38°42' W 009°10'0 0.0
2014-Aug-14 09:33N 38°42' W 009°10'6 6.2
2014-Aug-14 08:34N 38°40' W 009°18'12416.8
2014-Aug-14 01:11N 36°39' W 008°51'1320.0
2014-Aug-14 00:33N 36°34' W 008°36'6420.9
2014-Aug-13 21:30N 36°15' W 007°21'1919.9
2014-Aug-13 20:33N 36°09' W 006°59'29112.6
2014-Aug-12 21:33N 37°12' W 001°05'2019.8
2014-Aug-12 20:33N 37°25' W 000°46'2120.8
2014-Aug-12 19:34N 37°40' W 000°29'1817.8
2014-Aug-12 18:33N 37°55' W 000°17'11518.8
2014-Aug-12 12:26N 39°24' E 001°18'4619.2
2014-Aug-12 10:03N 39°53' E 002°04'1919.5
2014-Aug-12 09:05N 40°05' E 002°23'1018.6
2014-Aug-12 08:32N 40°12' E 002°33'1919.3
2014-Aug-12 07:33N 40°24' E 002°52'2019.8
2014-Aug-12 06:33N 40°37' E 003°11'4220.0
2014-Aug-12 04:28N 41°04' E 003°54'2120.8
2014-Aug-12 03:28N 41°17' E 004°15'1819.0
2014-Aug-12 02:32N 41°28' E 004°33'2020.0
2014-Aug-12 01:32N 41°41' E 004°54'2120.4
2014-Aug-12 00:29N 41°55' E 005°16'1920.3
2014-Aug-11 23:33N 42°07' E 005°35'2020.0
2014-Aug-11 22:33N 42°20' E 005°56'2019.8
2014-Aug-11 21:33N 42°33' E 006°16'1919.4
2014-Aug-11 20:33N 42°45' E 006°37'2019.8
2014-Aug-11 19:33N 42°58' E 006°57'  

Dump ship's entire track history